Hennepin, OK (73444)

9:50 AM CDT on October 01, 2014 (GMT -0500)
Fox Volunteer Fire Department | Change Station
CLOSE
Current Station
Personal Weather Station
Location: Fox, OK
Elevation: 988 ft
Nearby Weather Stations
4.1 Earthquake: Perry, Oklahoma (1 day ago)  

Elev 988 ft 34.36 °N, 97.49 °W | Updated 39 seconds ago

Partly Cloudy
Partly Cloudy
78.0 °F
Feels Like 80 °F
N
10.0
Wind Variable Wind from South
Gusts 10.0 mph

Today
High -- | Low -- °F
--% Chance of Precip.
Yesterday
High -- | Low -- °F
Precip. -- in
7:24 AM 7:13 PM
Waxing Crescent, 48% visible
Pressure 29.78 in
Visibility 10.0 miles
Clouds Clear
Heat Index 80 °F
Dew Point 71 °F
Humidity 79%
Rainfall 0.00 in
Snow Depth Not available.
UV 1 out of 12
Pollen 9.60 out of 12
Air Quality Not available.
Flu Activity Not available.
METAR KPVJ 011355Z AUTO 17007KT 10SM CLR 24/20 A2978 RMK AO2 T02410202

More Conditions Fewer Conditions

Pressure 29.78 in
Visibility 10.0 miles
Clouds Clear
Heat Index 80 °F
Dew Point 71 °F
Humidity 79%
Rainfall 0.00 in
Snow Depth Not available.
UV 1 out of 12
Pollen 9.60 out of 12
Air Quality Not available.
Flu Activity Not available.
METAR KPVJ 011355Z AUTO 17007KT 10SM CLR 24/20 A2978 RMK AO2 T02410202

More Conditions Fewer Conditions

10-Day Weather Forecast

Almanac

Astronomy

Oct. 01, 2014 Rise Set
Actual Time 7:24 AM CDT 7:13 PM CDT
Civil Twilight 6:59 AM CDT 7:38 PM CDT
Nautical Twilight 6:30 AM CDT 8:07 PM CDT
Astronomical Twilight 6:00 AM CDT 8:37 PM CDT
Moon 2:15 PM CDT No Moon Set
Length of Visible Light 12h 39m
Length of Day
11h 49m
Tomorrow will be 2m 8s shorter.
Waxing Crescent, 48% of the Moon is Illuminated
Today
Waxing Crescent
Oct 1
First Quarter
Oct 8
Full
Oct 15
Last Quarter
Oct 23
New

Today's Extremes

State Highs State Lows

Community

WunderPhotos

Upload Photos

1,757,960 photos uploaded!

Nearby

Snow Depth

Station Depth Elevation
No new snow has been reported.

Earthquake Activity

City Distance Mag. Time & Date
Spencer, Oklahoma 76 miles 3.0 5:12 PM CDT
2014-09-30
Perry, Oklahoma 117 miles 2.6 2:34 PM CDT
2014-09-30
Yale, Oklahoma 126 miles 2.6 11:29 AM CDT
2014-09-30
Perry, Oklahoma 130 miles 2.6 9:43 AM CDT
2014-09-30
Minimum magnitude displayed is 2.5.

Coastal Water Temperatures

Place Temperature
No Stations Reporting

Nearby Weather Stations